sensor_id;sensor_type;location;lat;lon;timestamp;pressure;altitude;pressure_sealevel;temperature;humidity
24962;BME280;12992;50.884;13.668;2023-04-02T00:05:16;96476.06;;;7.48;100.00
24962;BME280;12992;50.884;13.668;2023-04-02T00:07:40;96481.22;;;7.49;100.00
24962;BME280;12992;50.884;13.668;2023-04-02T00:13:04;96484.28;;;7.31;100.00
24962;BME280;12992;50.884;13.668;2023-04-02T00:15:30;96495.59;;;7.23;100.00
24962;BME280;12992;50.884;13.668;2023-04-02T00:17:56;96499.09;;;7.23;100.00
24962;BME280;12992;50.884;13.668;2023-04-02T00:20:22;96510.72;;;7.19;100.00
24962;BME280;12992;50.884;13.668;2023-04-02T00:22:48;96510.34;;;7.10;100.00
24962;BME280;12992;50.884;13.668;2023-04-02T00:25:14;96492.09;;;7.00;100.00
24962;BME280;12992;50.884;13.668;2023-04-02T00:27:40;96517.56;;;7.04;100.00
24962;BME280;12992;50.884;13.668;2023-04-02T00:30:06;96516.75;;;7.04;100.00
24962;BME280;12992;50.884;13.668;2023-04-02T00:32:34;96532.53;;;7.07;100.00
24962;BME280;12992;50.884;13.668;2023-04-02T00:35:01;96530.28;;;7.04;100.00
24962;BME280;12992;50.884;13.668;2023-04-02T00:37:28;96529.47;;;7.03;100.00
24962;BME280;12992;50.884;13.668;2023-04-02T00:40:27;96538.13;;;7.00;100.00
24962;BME280;12992;50.884;13.668;2023-04-02T00:42:55;96523.75;;;6.78;100.00
24962;BME280;12992;50.884;13.668;2023-04-02T00:45:25;96548.88;;;6.95;100.00
24962;BME280;12992;50.884;13.668;2023-04-02T00:47:52;96548.09;;;6.78;100.00
24962;BME280;12992;50.884;13.668;2023-04-02T00:50:25;96550.25;;;6.76;100.00
24962;BME280;12992;50.884;13.668;2023-04-02T00:52:53;96557.72;;;6.69;100.00
24962;BME280;12992;50.884;13.668;2023-04-02T00:55:26;96568.28;;;6.70;100.00
24962;BME280;12992;50.884;13.668;2023-04-02T00:57:58;96560.69;;;6.67;100.00
24962;BME280;12992;50.884;13.668;2023-04-02T01:00:33;96555.94;;;6.58;100.00
24962;BME280;12992;50.884;13.668;2023-04-02T01:05:37;96584.94;;;6.62;100.00
24962;BME280;12992;50.884;13.668;2023-04-02T01:11:02;96585.69;;;6.58;100.00
24962;BME280;12992;50.884;13.668;2023-04-02T01:16:32;96573.94;;;6.30;100.00
24962;BME280;12992;50.884;13.668;2023-04-02T01:19:04;96588.34;;;6.36;100.00
24962;BME280;12992;50.884;13.668;2023-04-02T01:22:18;96580.31;;;6.24;100.00
24962;BME280;12992;50.884;13.668;2023-04-02T01:24:29;96584.59;;;6.20;100.00
24962;BME280;12992;50.884;13.668;2023-04-02T01:27:31;96580.72;;;6.16;100.00
24962;BME280;12992;50.884;13.668;2023-04-02T01:29:59;96586.53;;;6.08;100.00
24962;BME280;12992;50.884;13.668;2023-04-02T01:32:27;96598.84;;;6.15;100.00
24962;BME280;12992;50.884;13.668;2023-04-02T01:34:54;96608.94;;;6.20;100.00
24962;BME280;12992;50.884;13.668;2023-04-02T01:45:30;96629.06;;;6.12;100.00
24962;BME280;12992;50.884;13.668;2023-04-02T01:47:56;96615.53;;;5.95;100.00
24962;BME280;12992;50.884;13.668;2023-04-02T01:50:27;96623.31;;;5.80;100.00
24962;BME280;12992;50.884;13.668;2023-04-02T01:52:59;96624.78;;;5.71;100.00
24962;BME280;12992;50.884;13.668;2023-04-02T01:55:46;96627.41;;;5.66;100.00
24962;BME280;12992;50.884;13.668;2023-04-02T01:58:13;96640.31;;;5.64;100.00
24962;BME280;12992;50.884;13.668;2023-04-02T02:00:56;96644.44;;;5.66;100.00
24962;BME280;12992;50.884;13.668;2023-04-02T02:03:25;96638.34;;;5.59;100.00
24962;BME280;12992;50.884;13.668;2023-04-02T02:05:50;96647.75;;;5.57;100.00
24962;BME280;12992;50.884;13.668;2023-04-02T02:08:26;96649.41;;;5.58;100.00
24962;BME280;12992;50.884;13.668;2023-04-02T02:10:54;96654.69;;;5.53;100.00
24962;BME280;12992;50.884;13.668;2023-04-02T02:13:21;96651.72;;;5.54;100.00
24962;BME280;12992;50.884;13.668;2023-04-02T02:15:47;96667.00;;;5.60;100.00
24962;BME280;12992;50.884;13.668;2023-04-02T02:18:16;96681.44;;;5.66;100.00
24962;BME280;12992;50.884;13.668;2023-04-02T02:20:43;96677.47;;;5.57;100.00
24962;BME280;12992;50.884;13.668;2023-04-02T02:23:10;96697.03;;;5.64;100.00
24962;BME280;12992;50.884;13.668;2023-04-02T02:25:36;96674.31;;;5.48;100.00
24962;BME280;12992;50.884;13.668;2023-04-02T02:28:09;96678.66;;;5.37;100.00
24962;BME280;12992;50.884;13.668;2023-04-02T02:30:38;96691.22;;;5.44;100.00
24962;BME280;12992;50.884;13.668;2023-04-02T02:33:19;96698.75;;;5.42;100.00
24962;BME280;12992;50.884;13.668;2023-04-02T02:41:24;96706.50;;;5.26;100.00
24962;BME280;12992;50.884;13.668;2023-04-02T02:44:01;96713.81;;;5.14;100.00
24962;BME280;12992;50.884;13.668;2023-04-02T02:46:31;96714.75;;;5.08;100.00
24962;BME280;12992;50.884;13.668;2023-04-02T02:48:58;96718.88;;;4.99;100.00
24962;BME280;12992;50.884;13.668;2023-04-02T02:51:43;96717.44;;;4.84;100.00
24962;BME280;12992;50.884;13.668;2023-04-02T02:54:16;96723.22;;;4.88;100.00
24962;BME280;12992;50.884;13.668;2023-04-02T02:56:52;96730.81;;;4.79;100.00
24962;BME280;12992;50.884;13.668;2023-04-02T02:59:20;96726.34;;;4.73;100.00
24962;BME280;12992;50.884;13.668;2023-04-02T03:01:46;96740.56;;;4.69;100.00
24962;BME280;12992;50.884;13.668;2023-04-02T03:04:18;96740.50;;;4.57;100.00
24962;BME280;12992;50.884;13.668;2023-04-02T03:06:48;96748.38;;;4.59;100.00
24962;BME280;12992;50.884;13.668;2023-04-02T03:09:35;96758.00;;;4.66;100.00
24962;BME280;12992;50.884;13.668;2023-04-02T03:14:57;96769.34;;;4.45;100.00
24962;BME280;12992;50.884;13.668;2023-04-02T03:17:30;96781.53;;;4.59;100.00
24962;BME280;12992;50.884;13.668;2023-04-02T03:20:02;96784.25;;;4.59;100.00
24962;BME280;12992;50.884;13.668;2023-04-02T03:22:39;96800.31;;;4.54;100.00
24962;BME280;12992;50.884;13.668;2023-04-02T03:27:41;96792.88;;;4.38;100.00
24962;BME280;12992;50.884;13.668;2023-04-02T03:33:20;96798.22;;;4.26;100.00
24962;BME280;12992;50.884;13.668;2023-04-02T03:36:18;96808.78;;;4.28;100.00
24962;BME280;12992;50.884;13.668;2023-04-02T03:38:55;96803.22;;;4.22;100.00
24962;BME280;12992;50.884;13.668;2023-04-02T03:41:39;96823.31;;;4.26;100.00
24962;BME280;12992;50.884;13.668;2023-04-02T03:44:15;96825.72;;;4.16;100.00
24962;BME280;12992;50.884;13.668;2023-04-02T03:46:51;96843.22;;;4.25;100.00
24962;BME280;12992;50.884;13.668;2023-04-02T03:49:38;96839.63;;;4.13;100.00
24962;BME280;12992;50.884;13.668;2023-04-02T03:52:16;96839.50;;;4.08;100.00
24962;BME280;12992;50.884;13.668;2023-04-02T03:54:44;96854.63;;;4.09;100.00
24962;BME280;12992;50.884;13.668;2023-04-02T04:02:45;96868.31;;;4.08;100.00
24962;BME280;12992;50.884;13.668;2023-04-02T04:05:20;96879.47;;;4.11;100.00
24962;BME280;12992;50.884;13.668;2023-04-02T04:07:51;96878.34;;;4.01;100.00
24962;BME280;12992;50.884;13.668;2023-04-02T04:10:21;96882.63;;;4.08;100.00
24962;BME280;12992;50.884;13.668;2023-04-02T04:12:51;96881.72;;;3.96;100.00
24962;BME280;12992;50.884;13.668;2023-04-02T04:20:29;96897.63;;;3.97;100.00
24962;BME280;12992;50.884;13.668;2023-04-02T04:23:35;96900.56;;;3.96;100.00
24962;BME280;12992;50.884;13.668;2023-04-02T04:26:20;96909.94;;;3.93;100.00
24962;BME280;12992;50.884;13.668;2023-04-02T04:31:54;96924.66;;;3.91;100.00
24962;BME280;12992;50.884;13.668;2023-04-02T04:34:37;96936.41;;;3.96;100.00
24962;BME280;12992;50.884;13.668;2023-04-02T04:37:13;96935.88;;;3.88;100.00
24962;BME280;12992;50.884;13.668;2023-04-02T04:39:52;96934.50;;;3.79;100.00
24962;BME280;12992;50.884;13.668;2023-04-02T04:42:23;96936.84;;;3.75;100.00
24962;BME280;12992;50.884;13.668;2023-04-02T04:45:02;96933.78;;;3.72;100.00
24962;BME280;12992;50.884;13.668;2023-04-02T04:47:50;96946.91;;;3.61;100.00
24962;BME280;12992;50.884;13.668;2023-04-02T04:50:29;96947.81;;;3.55;100.00
24962;BME280;12992;50.884;13.668;2023-04-02T04:53:06;96956.03;;;3.60;100.00
24962;BME280;12992;50.884;13.668;2023-04-02T04:55:42;96953.59;;;3.52;100.00
24962;BME280;12992;50.884;13.668;2023-04-02T04:58:32;96968.94;;;3.52;100.00
24962;BME280;12992;50.884;13.668;2023-04-02T05:01:04;96968.78;;;3.47;100.00
24962;BME280;12992;50.884;13.668;2023-04-02T05:03:50;96992.75;;;3.55;100.00
24962;BME280;12992;50.884;13.668;2023-04-02T05:06:38;96985.97;;;3.46;100.00
24962;BME280;12992;50.884;13.668;2023-04-02T05:09:13;96982.50;;;3.38;100.00
24962;BME280;12992;50.884;13.668;2023-04-02T05:11:56;96998.63;;;3.45;100.00
24962;BME280;12992;50.884;13.668;2023-04-02T05:17:53;97011.41;;;3.50;100.00
24962;BME280;12992;50.884;13.668;2023-04-02T05:20:40;97031.03;;;3.57;100.00
24962;BME280;12992;50.884;13.668;2023-04-02T05:23:18;97021.63;;;3.41;100.00
24962;BME280;12992;50.884;13.668;2023-04-02T05:25:52;97020.19;;;3.38;100.00
24962;BME280;12992;50.884;13.668;2023-04-02T05:28:37;97037.97;;;3.46;100.00
24962;BME280;12992;50.884;13.668;2023-04-02T05:31:10;97023.97;;;3.31;100.00
24962;BME280;12992;50.884;13.668;2023-04-02T05:33:38;97043.59;;;3.38;100.00
24962;BME280;12992;50.884;13.668;2023-04-02T05:36:21;97042.59;;;3.32;100.00
24962;BME280;12992;50.884;13.668;2023-04-02T05:38:53;97054.19;;;3.33;100.00
24962;BME280;12992;50.884;13.668;2023-04-02T05:41:44;97033.03;;;2.98;100.00
24962;BME280;12992;50.884;13.668;2023-04-02T05:44:25;97053.75;;;2.98;100.00
24962;BME280;12992;50.884;13.668;2023-04-02T05:46:58;97054.34;;;3.00;100.00
24962;BME280;12992;50.884;13.668;2023-04-02T05:49:34;97036.69;;;2.72;100.00
24962;BME280;12992;50.884;13.668;2023-04-02T05:52:11;97066.03;;;2.80;100.00
24962;BME280;12992;50.884;13.668;2023-04-02T05:54:46;97085.28;;;2.77;100.00
24962;BME280;12992;50.884;13.668;2023-04-02T05:57:16;97079.91;;;2.71;100.00
24962;BME280;12992;50.884;13.668;2023-04-02T05:59:46;97087.13;;;2.83;100.00
24962;BME280;12992;50.884;13.668;2023-04-02T06:02:31;97112.75;;;2.86;100.00
24962;BME280;12992;50.884;13.668;2023-04-02T06:07:40;97109.31;;;2.66;100.00
24962;BME280;12992;50.884;13.668;2023-04-02T06:10:13;97115.69;;;2.65;100.00
24962;BME280;12992;50.884;13.668;2023-04-02T06:12:45;97121.06;;;2.71;100.00
24962;BME280;12992;50.884;13.668;2023-04-02T06:15:18;97126.88;;;2.75;100.00
24962;BME280;12992;50.884;13.668;2023-04-02T06:17:57;97138.84;;;2.79;100.00
24962;BME280;12992;50.884;13.668;2023-04-02T06:20:24;97140.50;;;2.73;100.00
24962;BME280;12992;50.884;13.668;2023-04-02T06:22:54;97136.00;;;2.61;100.00
24962;BME280;12992;50.884;13.668;2023-04-02T06:25:29;97152.28;;;2.79;100.00
24962;BME280;12992;50.884;13.668;2023-04-02T06:27:58;97156.63;;;2.73;100.00
24962;BME280;12992;50.884;13.668;2023-04-02T06:30:34;97154.16;;;2.72;100.00
24962;BME280;12992;50.884;13.668;2023-04-02T06:33:03;97159.91;;;2.82;100.00
24962;BME280;12992;50.884;13.668;2023-04-02T06:35:38;97165.94;;;2.84;100.00
24962;BME280;12992;50.884;13.668;2023-04-02T06:38:11;97138.91;;;2.52;100.00
24962;BME280;12992;50.884;13.668;2023-04-02T06:40:44;97173.63;;;2.67;100.00
24962;BME280;12992;50.884;13.668;2023-04-02T06:43:40;97185.59;;;2.71;100.00
24962;BME280;12992;50.884;13.668;2023-04-02T06:46:39;97168.84;;;2.56;100.00
24962;BME280;12992;50.884;13.668;2023-04-02T06:49:20;97192.66;;;2.52;100.00
24962;BME280;12992;50.884;13.668;2023-04-02T06:51:52;97207.94;;;2.72;100.00
24962;BME280;12992;50.884;13.668;2023-04-02T06:54:19;97187.28;;;2.52;100.00
24962;BME280;12992;50.884;13.668;2023-04-02T06:56:51;97195.16;;;2.47;100.00
24962;BME280;12992;50.884;13.668;2023-04-02T06:59:24;97215.00;;;2.60;100.00
24962;BME280;12992;50.884;13.668;2023-04-02T07:02:17;97218.94;;;2.57;100.00
24962;BME280;12992;50.884;13.668;2023-04-02T07:04:46;97214.38;;;2.51;100.00
24962;BME280;12992;50.884;13.668;2023-04-02T07:07:13;97234.00;;;2.65;100.00
24962;BME280;12992;50.884;13.668;2023-04-02T07:09:41;97227.78;;;2.64;100.00
24962;BME280;12992;50.884;13.668;2023-04-02T07:12:12;97233.63;;;2.48;100.00
24962;BME280;12992;50.884;13.668;2023-04-02T07:14:37;97230.09;;;2.47;100.00
24962;BME280;12992;50.884;13.668;2023-04-02T07:17:03;97230.31;;;2.39;100.00
24962;BME280;12992;50.884;13.668;2023-04-02T07:19:28;97234.44;;;2.42;100.00
24962;BME280;12992;50.884;13.668;2023-04-02T07:21:56;97230.47;;;2.38;100.00
24962;BME280;12992;50.884;13.668;2023-04-02T07:24:23;97244.97;;;2.37;100.00
24962;BME280;12992;50.884;13.668;2023-04-02T07:26:48;97245.59;;;2.32;100.00
24962;BME280;12992;50.884;13.668;2023-04-02T07:29:15;97240.00;;;2.27;100.00
24962;BME280;12992;50.884;13.668;2023-04-02T07:31:41;97283.00;;;2.40;100.00
24962;BME280;12992;50.884;13.668;2023-04-02T07:34:06;97286.09;;;2.44;100.00
24962;BME280;12992;50.884;13.668;2023-04-02T07:36:32;97279.25;;;2.28;100.00
24962;BME280;12992;50.884;13.668;2023-04-02T07:38:57;97299.94;;;2.34;100.00
24962;BME280;12992;50.884;13.668;2023-04-02T07:41:23;97284.84;;;2.26;100.00
24962;BME280;12992;50.884;13.668;2023-04-02T07:43:48;97278.88;;;2.31;100.00
24962;BME280;12992;50.884;13.668;2023-04-02T07:46:14;97311.13;;;2.31;100.00
24962;BME280;12992;50.884;13.668;2023-04-02T07:48:45;97319.59;;;2.41;100.00
24962;BME280;12992;50.884;13.668;2023-04-02T07:51:24;97308.44;;;2.31;100.00
24962;BME280;12992;50.884;13.668;2023-04-02T07:53:51;97313.81;;;2.31;100.00
24962;BME280;12992;50.884;13.668;2023-04-02T07:56:20;97303.44;;;2.28;100.00
24962;BME280;12992;50.884;13.668;2023-04-02T07:58:46;97333.03;;;2.41;100.00
24962;BME280;12992;50.884;13.668;2023-04-02T08:01:20;97321.25;;;2.36;100.00
24962;BME280;12992;50.884;13.668;2023-04-02T08:03:48;97319.56;;;2.28;100.00
24962;BME280;12992;50.884;13.668;2023-04-02T08:06:14;97306.13;;;2.15;100.00
24962;BME280;12992;50.884;13.668;2023-04-02T08:08:40;97312.34;;;2.22;100.00
24962;BME280;12992;50.884;13.668;2023-04-02T08:11:06;97337.34;;;2.29;100.00
24962;BME280;12992;50.884;13.668;2023-04-02T08:13:32;97339.63;;;2.32;100.00
24962;BME280;12992;50.884;13.668;2023-04-02T08:15:59;97351.41;;;2.31;100.00
24962;BME280;12992;50.884;13.668;2023-04-02T08:18:24;97354.72;;;2.33;100.00
24962;BME280;12992;50.884;13.668;2023-04-02T08:20:50;97367.13;;;2.34;100.00
24962;BME280;12992;50.884;13.668;2023-04-02T08:23:16;97343.94;;;2.13;100.00
24962;BME280;12992;50.884;13.668;2023-04-02T08:25:43;97355.31;;;2.22;100.00
24962;BME280;12992;50.884;13.668;2023-04-02T08:28:08;97367.50;;;2.18;100.00
24962;BME280;12992;50.884;13.668;2023-04-02T08:30:34;97389.88;;;2.38;100.00
24962;BME280;12992;50.884;13.668;2023-04-02T08:32:59;97371.44;;;2.28;100.00
24962;BME280;12992;50.884;13.668;2023-04-02T08:35:25;97366.25;;;2.14;100.00
24962;BME280;12992;50.884;13.668;2023-04-02T08:37:50;97391.09;;;2.29;100.00
24962;BME280;12992;50.884;13.668;2023-04-02T08:40:24;97390.69;;;2.32;100.00
24962;BME280;12992;50.884;13.668;2023-04-02T08:43:03;97389.22;;;2.23;100.00
24962;BME280;12992;50.884;13.668;2023-04-02T08:45:48;97391.47;;;2.19;100.00
24962;BME280;12992;50.884;13.668;2023-04-02T08:48:18;97398.69;;;2.19;100.00
24962;BME280;12992;50.884;13.668;2023-04-02T08:50:44;97396.00;;;2.12;100.00
24962;BME280;12992;50.884;13.668;2023-04-02T08:53:17;97412.13;;;2.19;100.00
24962;BME280;12992;50.884;13.668;2023-04-02T08:58:39;97382.09;;;2.02;100.00
24962;BME280;12992;50.884;13.668;2023-04-02T09:03:49;97411.88;;;2.07;100.00
24962;BME280;12992;50.884;13.668;2023-04-02T09:06:18;97423.28;;;2.16;100.00
24962;BME280;12992;50.884;13.668;2023-04-02T09:08:45;97426.38;;;2.19;100.00
24962;BME280;12992;50.884;13.668;2023-04-02T09:11:26;97435.53;;;2.25;100.00
24962;BME280;12992;50.884;13.668;2023-04-02T09:13:57;97421.47;;;2.23;100.00
24962;BME280;12992;50.884;13.668;2023-04-02T09:16:41;97432.19;;;2.16;100.00
24962;BME280;12992;50.884;13.668;2023-04-02T09:19:15;97430.47;;;2.09;100.00
24962;BME280;12992;50.884;13.668;2023-04-02T09:21:45;97435.06;;;2.15;100.00
24962;BME280;12992;50.884;13.668;2023-04-02T09:24:12;97438.59;;;2.15;100.00
24962;BME280;12992;50.884;13.668;2023-04-02T09:26:38;97432.13;;;2.10;100.00
24962;BME280;12992;50.884;13.668;2023-04-02T09:31:40;97449.97;;;2.24;100.00
24962;BME280;12992;50.884;13.668;2023-04-02T09:36:52;97459.28;;;2.28;100.00
24962;BME280;12992;50.884;13.668;2023-04-02T09:39:20;97463.00;;;2.27;100.00
24962;BME280;12992;50.884;13.668;2023-04-02T09:41:46;97479.78;;;2.36;100.00
24962;BME280;12992;50.884;13.668;2023-04-02T09:44:22;97482.31;;;2.44;100.00
24962;BME280;12992;50.884;13.668;2023-04-02T09:46:55;97479.63;;;2.44;100.00
24962;BME280;12992;50.884;13.668;2023-04-02T09:49:26;97495.78;;;2.50;100.00
24962;BME280;12992;50.884;13.668;2023-04-02T09:52:20;97498.28;;;2.52;100.00
24962;BME280;12992;50.884;13.668;2023-04-02T09:57:35;97488.13;;;2.47;100.00
24962;BME280;12992;50.884;13.668;2023-04-02T10:00:08;97505.75;;;2.57;100.00
24962;BME280;12992;50.884;13.668;2023-04-02T10:02:39;97505.72;;;2.50;100.00
24962;BME280;12992;50.884;13.668;2023-04-02T10:05:16;97466.72;;;2.26;100.00
24962;BME280;12992;50.884;13.668;2023-04-02T10:07:45;97517.06;;;2.45;100.00
24962;BME280;12992;50.884;13.668;2023-04-02T10:12:48;97535.13;;;2.65;100.00
24962;BME280;12992;50.884;13.668;2023-04-02T10:15:19;97546.41;;;2.88;100.00
24962;BME280;12992;50.884;13.668;2023-04-02T10:17:56;97514.88;;;2.69;100.00
24962;BME280;12992;50.884;13.668;2023-04-02T10:20:25;97510.47;;;2.54;100.00
24962;BME280;12992;50.884;13.668;2023-04-02T10:22:51;97507.13;;;2.39;100.00
24962;BME280;12992;50.884;13.668;2023-04-02T10:25:18;97509.75;;;2.33;100.00
24962;BME280;12992;50.884;13.668;2023-04-02T10:27:53;97511.75;;;2.17;100.00
24962;BME280;12992;50.884;13.668;2023-04-02T10:30:47;97515.41;;;2.10;100.00
24962;BME280;12992;50.884;13.668;2023-04-02T10:33:29;97543.25;;;2.30;100.00
24962;BME280;12992;50.884;13.668;2023-04-02T10:38:50;97555.25;;;2.34;100.00
24962;BME280;12992;50.884;13.668;2023-04-02T10:41:36;97570.13;;;2.37;100.00
24962;BME280;12992;50.884;13.668;2023-04-02T10:44:05;97563.31;;;2.34;100.00
24962;BME280;12992;50.884;13.668;2023-04-02T10:47:17;97559.53;;;2.22;100.00
24962;BME280;12992;50.884;13.668;2023-04-02T10:49:56;97563.88;;;2.23;100.00
24962;BME280;12992;50.884;13.668;2023-04-02T10:52:29;97581.69;;;2.31;100.00
24962;BME280;12992;50.884;13.668;2023-04-02T10:55:03;97585.38;;;2.30;100.00
24962;BME280;12992;50.884;13.668;2023-04-02T10:57:40;97592.88;;;2.34;100.00
24962;BME280;12992;50.884;13.668;2023-04-02T11:05:33;97596.59;;;2.33;100.00
24962;BME280;12992;50.884;13.668;2023-04-02T11:08:16;97623.78;;;2.51;100.00
24962;BME280;12992;50.884;13.668;2023-04-02T11:10:47;97627.09;;;2.53;100.00
24962;BME280;12992;50.884;13.668;2023-04-02T11:15:49;97633.03;;;2.42;100.00
24962;BME280;12992;50.884;13.668;2023-04-02T11:18:26;97619.59;;;2.42;100.00
24962;BME280;12992;50.884;13.668;2023-04-02T11:20:56;97624.56;;;2.45;100.00
24962;BME280;12992;50.884;13.668;2023-04-02T11:23:30;97622.03;;;2.37;100.00
24962;BME280;12992;50.884;13.668;2023-04-02T11:26:29;97625.38;;;2.39;100.00
24962;BME280;12992;50.884;13.668;2023-04-02T11:31:49;97649.25;;;2.55;100.00
24962;BME280;12992;50.884;13.668;2023-04-02T11:37:36;97661.28;;;2.60;100.00
24962;BME280;12992;50.884;13.668;2023-04-02T11:48:48;97703.81;;;3.12;100.00
24962;BME280;12992;50.884;13.668;2023-04-02T11:53:45;97658.91;;;2.78;100.00
24962;BME280;12992;50.884;13.668;2023-04-02T12:09:48;97704.22;;;3.16;100.00
24962;BME280;12992;50.884;13.668;2023-04-02T12:12:27;97717.47;;;3.17;100.00
24962;BME280;12992;50.884;13.668;2023-04-02T12:14:57;97691.28;;;2.98;100.00
24962;BME280;12992;50.884;13.668;2023-04-02T12:17:27;97711.88;;;3.12;100.00
24962;BME280;12992;50.884;13.668;2023-04-02T12:19:59;97708.16;;;3.13;100.00
24962;BME280;12992;50.884;13.668;2023-04-02T12:22:30;97702.50;;;3.08;100.00
24962;BME280;12992;50.884;13.668;2023-04-02T12:25:03;97706.66;;;3.04;100.00
24962;BME280;12992;50.884;13.668;2023-04-02T12:27:29;97727.22;;;3.18;100.00
24962;BME280;12992;50.884;13.668;2023-04-02T12:30:19;97729.94;;;3.25;100.00
24962;BME280;12992;50.884;13.668;2023-04-02T12:32:45;97745.53;;;3.36;100.00
24962;BME280;12992;50.884;13.668;2023-04-02T12:35:29;97730.34;;;3.22;100.00
24962;BME280;12992;50.884;13.668;2023-04-02T12:37:56;97732.41;;;3.20;100.00
24962;BME280;12992;50.884;13.668;2023-04-02T12:40:23;97734.28;;;3.19;100.00
24962;BME280;12992;50.884;13.668;2023-04-02T12:42:48;97753.63;;;3.36;100.00
24962;BME280;12992;50.884;13.668;2023-04-02T12:45:25;97747.81;;;3.39;100.00
24962;BME280;12992;50.884;13.668;2023-04-02T12:47:52;97763.19;;;3.45;100.00
24962;BME280;12992;50.884;13.668;2023-04-02T12:50:19;97761.53;;;3.51;100.00
24962;BME280;12992;50.884;13.668;2023-04-02T12:52:47;97789.41;;;3.78;100.00
24962;BME280;12992;50.884;13.668;2023-04-02T12:55:18;97800.69;;;3.94;100.00
24962;BME280;12992;50.884;13.668;2023-04-02T12:57:43;97790.09;;;3.93;100.00
24962;BME280;12992;50.884;13.668;2023-04-02T13:02:48;97770.19;;;3.87;100.00
24962;BME280;12992;50.884;13.668;2023-04-02T13:05:31;97785.78;;;4.05;100.00
24962;BME280;12992;50.884;13.668;2023-04-02T13:07:58;97785.41;;;4.08;100.00
24962;BME280;12992;50.884;13.668;2023-04-02T13:10:25;97760.88;;;3.90;100.00
24962;BME280;12992;50.884;13.668;2023-04-02T13:12:55;97777.06;;;3.90;100.00
24962;BME280;12992;50.884;13.668;2023-04-02T13:15:32;97759.97;;;3.69;100.00
24962;BME280;12992;50.884;13.668;2023-04-02T13:18:06;97762.66;;;3.69;100.00
24962;BME280;12992;50.884;13.668;2023-04-02T13:20:40;97761.81;;;3.69;100.00
24962;BME280;12992;50.884;13.668;2023-04-02T13:23:30;97789.94;;;4.01;100.00
24962;BME280;12992;50.884;13.668;2023-04-02T13:25:58;97801.59;;;4.21;100.00
24962;BME280;12992;50.884;13.668;2023-04-02T13:28:24;97813.03;;;4.37;100.00
24962;BME280;12992;50.884;13.668;2023-04-02T13:30:49;97782.69;;;4.15;100.00
24962;BME280;12992;50.884;13.668;2023-04-02T13:33:15;97779.19;;;4.08;100.00
24962;BME280;12992;50.884;13.668;2023-04-02T13:35:42;97789.94;;;4.14;100.00
24962;BME280;12992;50.884;13.668;2023-04-02T13:38:08;97789.94;;;4.14;100.00
24962;BME280;12992;50.884;13.668;2023-04-02T13:40:34;97781.63;;;4.03;100.00
24962;BME280;12992;50.884;13.668;2023-04-02T13:43:02;97773.53;;;3.96;100.00
24962;BME280;12992;50.884;13.668;2023-04-02T13:45:36;97780.78;;;3.95;100.00
24962;BME280;12992;50.884;13.668;2023-04-02T13:48:03;97774.16;;;3.91;100.00
24962;BME280;12992;50.884;13.668;2023-04-02T13:50:30;97777.06;;;3.90;100.00
24962;BME280;12992;50.884;13.668;2023-04-02T13:52:58;97773.53;;;3.96;100.00
24962;BME280;12992;50.884;13.668;2023-04-02T13:55:26;97794.50;;;4.14;100.00
24962;BME280;12992;50.884;13.668;2023-04-02T13:57:55;97790.56;;;4.10;100.00
24962;BME280;12992;50.884;13.668;2023-04-02T14:00:21;97788.72;;;4.10;100.00
24962;BME280;12992;50.884;13.668;2023-04-02T14:02:50;97786.22;;;4.09;100.00
24962;BME280;12992;50.884;13.668;2023-04-02T14:05:31;97789.97;;;4.08;100.00
24962;BME280;12992;50.884;13.668;2023-04-02T14:08:06;97768.53;;;3.86;100.00
24962;BME280;12992;50.884;13.668;2023-04-02T14:13:45;97771.94;;;3.60;100.00
24962;BME280;12992;50.884;13.668;2023-04-02T14:16:25;97753.41;;;3.44;100.00
24962;BME280;12992;50.884;13.668;2023-04-02T14:24:59;97780.59;;;3.49;100.00
24962;BME280;12992;50.884;13.668;2023-04-02T14:27:44;97790.16;;;3.58;100.00
24962;BME280;12992;50.884;13.668;2023-04-02T14:33:15;97824.28;;;3.86;100.00
24962;BME280;12992;50.884;13.668;2023-04-02T14:35:46;97823.88;;;3.89;100.00
24962;BME280;12992;50.884;13.668;2023-04-02T14:44:00;97815.56;;;3.84;100.00
24962;BME280;12992;50.884;13.668;2023-04-02T14:46:29;97803.91;;;3.77;100.00
24962;BME280;12992;50.884;13.668;2023-04-02T14:51:51;97804.28;;;3.67;100.00
24962;BME280;12992;50.884;13.668;2023-04-02T14:54:30;97813.00;;;3.69;100.00
24962;BME280;12992;50.884;13.668;2023-04-02T14:57:09;97792.63;;;3.53;100.00
24962;BME280;12992;50.884;13.668;2023-04-02T14:59:43;97815.28;;;3.65;100.00
24962;BME280;12992;50.884;13.668;2023-04-02T15:02:18;97819.41;;;3.68;100.00
24962;BME280;12992;50.884;13.668;2023-04-02T15:05:02;97810.69;;;3.59;100.00
24962;BME280;12992;50.884;13.668;2023-04-02T15:07:42;97803.16;;;3.48;100.00
24962;BME280;12992;50.884;13.668;2023-04-02T15:10:33;97801.50;;;3.47;100.00
24962;BME280;12992;50.884;13.668;2023-04-02T15:13:05;97799.25;;;3.51;100.00
24962;BME280;12992;50.884;13.668;2023-04-02T15:15:40;97790.03;;;3.32;100.00
24962;BME280;12992;50.884;13.668;2023-04-02T15:18:10;97794.16;;;3.28;100.00
24962;BME280;12992;50.884;13.668;2023-04-02T15:21:03;97806.81;;;3.34;100.00
24962;BME280;12992;50.884;13.668;2023-04-02T15:23:41;97801.56;;;3.26;100.00
24962;BME280;12992;50.884;13.668;2023-04-02T15:26:19;97825.44;;;3.35;100.00
24962;BME280;12992;50.884;13.668;2023-04-02T15:28:54;97830.00;;;3.35;100.00
24962;BME280;12992;50.884;13.668;2023-04-02T15:31:26;97829.22;;;3.41;100.00
24962;BME280;12992;50.884;13.668;2023-04-02T15:36:47;97855.22;;;3.55;100.00
24962;BME280;12992;50.884;13.668;2023-04-02T15:39:50;97846.47;;;3.53;100.00
24962;BME280;12992;50.884;13.668;2023-04-02T15:53:08;97822.94;;;3.27;100.00